Latest Weather Observations for Longreach

IDQ60801

Issued at 4:22 am EST Saturday 4 April 2020 (issued every 10 minutes, with the page automatically refreshed every 10 minutes)

About weather observations | Map of weather stations | Latest weather observations for QLD | Other Formats
Station Details ID: 036031 Name: LONGREACH AERO Lat: -23.44 Lon: 144.28 Height: 192.2 m
Data from the previous 72 hours. | See also: Recent months at Longreach
Date/Time
EST
Temp
°C
App
Temp
°C
Dew
Point
°C
Rel
Hum
%
Delta-T
°C
Wind Press
QNH
hPa
Press
MSL
hPa
Rain since
9am
mm
Dir  Spd
km/h
Gust
km/h
Spd
kts
Gust
kts
04/04:00am 23.3 24.7 20.4 84 1.9 SSW 13 17 7 9 1008.6 1007.7 0.0
04/03:30am 23.3 25.4 20.2 83 2.0 S 9 11 5 6 1008.3 1007.4 0.0
04/03:00am 23.3 25.4 20.2 83 2.0 SSW 9 13 5 7 1008.9 1008.0 0.0
04/02:30am 23.8 23.7 19.9 79 2.5 SW 20 28 11 15 1009.8 1008.8 0.0
04/02:00am 25.0 24.0 18.9 69 3.9 SW 22 30 12 16 1009.9 1008.9 0.0
04/01:30am 25.4 23.8 19.1 68 4.1 SW 26 46 14 25 1009.4 1008.5 0.0
04/01:26am 26.1 25.5 18.8 64 4.7 SW 20 37 11 20 1009.5 1008.6 0.0
04/01:00am 26.4 27.5 18.0 60 5.4 WSW 9 13 5 7 1009.2 1008.3 0.0
04/12:30am 26.0 25.0 17.9 61 5.1 W 20 32 11 17 1009.9 1008.9 0.0
04/12:02am 27.3 22.9 16.6 52 6.7 W 35 59 19 32 1009.7 1008.7 0.0
04/12:00am 27.9 24.2 15.9 48 7.4 WNW 30 59 16 32 1009.8 1008.8 0.0
 
Date/Time
EST
Temp
°C
App
Temp
°C
Dew
Point
°C
Rel
Hum
%
Delta-T
°C
Wind Press
QNH
hPa
Press
MSL
hPa
Rain since
9am
mm
Dir  Spd
km/h
Gust
km/h
Spd
kts
Gust
kts
03/11:58pm 29.5 26.6 15.2 41 8.8 NW 24 59 13 32 1009.8 1008.8 0.0
03/11:57pm 29.9 27.0 12.8 35 10.2 NNW 20 44 11 24 1009.8 1008.8 0.0
03/11:30pm 29.3 27.2 12.3 35 10.0 N 15 19 8 10 1008.0 1007.1 0.0
03/11:00pm 29.2 27.0 12.2 35 10.0 N 15 19 8 10 1008.0 1007.1 0.0
03/10:30pm 28.8 27.0 12.2 35 9.7 NNE 13 15 7 8 1008.1 1007.2 0.0
03/10:00pm 28.7 26.4 11.7 35 9.9 NE 15 19 8 10 1008.0 1007.1 0.0
03/09:30pm 29.4 27.1 11.9 34 10.3 NE 15 15 8 8 1008.1 1007.2 0.0
03/09:00pm 30.1 27.9 12.1 33 10.6 NE 15 17 8 9 1007.8 1006.9 0.0
03/08:30pm 30.9 28.2 11.8 31 11.2 NE 17 19 9 10 1007.4 1006.5 0.0
03/08:00pm 31.4 29.5 11.7 29 11.6 NNE 13 15 7 8 1007.2 1006.3 0.0
03/07:30pm 32.3 30.5 12.0 29 12.1 NE 13 17 7 9 1007.0 1006.1 0.0
03/07:00pm 32.7 31.0 11.3 27 12.6 N 11 13 6 7 1006.7 1005.8 0.0
03/06:30pm 34.0 32.1 11.8 26 13.2 NNW 13 17 7 9 1006.5 1005.5 0.0
03/06:00pm 35.1 32.9 12.1 25 13.9 NNW 15 19 8 10 1006.2 1005.2 0.0
03/05:30pm 36.4 33.2 11.9 23 14.8 N 20 28 11 15 1006.2 1005.2 0.0
03/05:00pm 36.6 34.4 12.1 23 14.9 NNW 15 28 8 15 1006.3 1005.3 0.0
03/04:30pm 36.4 34.0 12.6 24 14.5 NNE 17 26 9 14 1006.3 1005.3 0.0
03/04:00pm 36.5 34.1 12.7 24 14.6 NNW 17 26 9 14 1006.6 1005.6 0.0
03/03:30pm 35.6 32.0 11.9 24 14.2 NNW 22 30 12 16 1006.6 1005.6 0.0
03/03:00pm 36.0 32.5 12.3 24 14.4 N 22 33 12 18 1006.6 1005.6 0.0
03/02:30pm 36.5 33.3 12.0 23 14.8 N 20 33 11 18 1006.9 1006.0 0.0
03/02:00pm 37.0 34.7 13.1 24 14.7 N 17 32 9 17 1007.4 1006.5 0.0
03/01:30pm 37.1 34.3 13.2 24 14.7 NNW 20 35 11 19 1008.1 1007.2 0.0
03/01:00pm 36.0 33.3 12.9 25 14.1 NNW 19 32 10 17 1008.7 1007.8 0.0
03/12:30pm 37.3 34.4 14.0 25 14.5 NNW 22 32 12 17 1009.4 1008.5 0.0
03/12:00pm 35.9 31.9 14.0 27 13.6 N 28 37 15 20 1009.9 1008.9 0.0
03/11:30am 35.1 30.2 14.4 29 12.9 N 33 41 18 22 1010.2 1009.2 0.0
03/11:00am 33.8 29.5 15.3 33 11.6 N 32 39 17 21 1010.6 1009.6 0.0
03/10:30am 32.8 28.3 15.3 34 10.9 N 33 46 18 25 1011.1 1010.1 0.0
03/10:00am 32.1 27.7 15.1 35 10.6 N 32 41 17 22 1011.5 1010.6 0.0
03/09:30am 30.8 26.8 15.2 38 9.7 N 30 37 16 20 1011.6 1010.7 0.0
03/09:00am 29.2 24.7 15.0 42 8.7 N 32 37 17 20 1011.8 1010.9 0.0
03/08:30am 28.2 25.2 14.8 44 8.2 N 24 30 13 16 1011.7 1010.8 0.0
03/08:00am 26.5 24.2 14.6 48 7.2 NNE 20 26 11 14 1011.7 1010.8 0.0
03/07:30am 24.5 23.3 14.0 52 6.2 NNE 13 17 7 9 1011.4 1010.5 0.0
03/07:00am 23.1 21.0 13.6 55 5.6 NNE 17 19 9 10 1011.0 1010.0 0.0
03/06:30am 22.5 20.6 13.0 55 5.5 NE 15 19 8 10 1010.7 1009.7 0.0
03/06:00am 23.0 21.1 12.9 53 5.9 NE 15 17 8 9 1010.1 1009.1 0.0
03/05:30am 23.4 21.1 13.0 52 6.0 NE 17 19 9 10 1009.8 1008.8 0.0
03/05:00am 23.7 21.4 13.0 51 6.2 NNE 17 19 9 10 1009.5 1008.6 0.0
03/04:30am 23.6 21.6 12.6 50 6.4 NE 15 17 8 9 1009.3 1008.4 0.0
03/04:00am 23.3 21.6 12.3 50 6.3 NE 13 19 7 10 1009.5 1008.6 0.0
03/03:30am 23.2 21.3 11.9 49 6.4 NNE 13 13 7 7 1009.0 1008.1 0.0
03/03:00am 23.4 21.2 12.1 49 6.5 NNE 15 15 8 8 1008.8 1007.9 0.0
03/02:30am 23.6 22.1 12.0 48 6.6 NNE 11 11 6 6 1009.1 1008.2 0.0
03/02:00am 24.3 22.8 11.9 45 7.1 NNE 11 13 6 7 1009.2 1008.3 0.0
03/01:30am 25.0 22.8 12.2 44 7.4 NE 15 17 8 9 1009.4 1008.5 0.0
03/01:00am 25.1 22.8 11.6 42 7.7 NE 15 15 8 8 1009.9 1008.9 0.0
03/12:30am 25.8 22.7 11.6 41 8.1 NE 19 20 10 11 1009.9 1008.9 0.0
03/12:00am 26.4 23.7 11.7 40 8.5 NE 17 19 9 10 1010.2 1009.2 0.0
 
Date/Time
EST
Temp
°C
App
Temp
°C
Dew
Point
°C
Rel
Hum
%
Delta-T
°C
Wind Press
QNH
hPa
Press
MSL
hPa
Rain since
9am
mm
Dir  Spd
km/h
Gust
km/h
Spd
kts
Gust
kts
02/11:30pm 26.3 24.0 11.6 40 8.5 NE 15 17 8 9 1010.3 1009.3 0.0
02/11:00pm 26.7 24.2 11.2 38 8.9 NE 15 17 8 9 1010.6 1009.6 0.0
02/10:30pm 27.2 24.4 11.3 37 9.1 NE 17 20 9 11 1010.9 1009.9 0.0
02/10:00pm 27.5 25.0 11.1 36 9.4 NE 15 17 8 9 1011.0 1010.0 0.0
02/09:30pm 28.4 25.9 11.0 34 10.0 NE 15 17 8 9 1011.1 1010.1 0.0
02/09:00pm 29.1 26.6 11.2 33 10.4 ENE 15 17 8 9 1011.1 1010.1 0.0
02/08:30pm 29.8 27.4 11.3 32 10.8 NE 15 17 8 9 1011.1 1010.1 0.0
02/08:00pm 30.5 28.1 11.5 31 11.1 NE 15 17 8 9 1010.8 1009.8 0.0
02/07:30pm 30.6 28.2 11.5 30 11.2 ENE 15 17 8 9 1010.6 1009.6 0.0
02/07:00pm 31.5 29.2 11.8 30 11.6 NE 15 17 8 9 1010.3 1009.3 0.0
02/06:30pm 32.7 31.0 12.3 28 12.2 NNE 13 17 7 9 1010.1 1009.1 0.0
02/06:00pm 33.8 32.0 12.2 27 13.0 NE 13 20 7 11 1009.8 1008.8 0.0
02/05:30pm 34.6 33.2 12.3 26 13.4 NE 11 19 6 10 1009.8 1008.8 0.0
02/05:00pm 35.0 34.1 12.6 26 13.6 ENE 9 19 5 10 1009.4 1008.5 0.0
02/04:30pm 34.9 33.6 12.5 25 13.5 NNE 11 24 6 13 1009.4 1008.5 0.0
02/04:00pm 34.8 33.1 12.5 26 13.5 NE 13 22 7 12 1009.5 1008.6 0.0
02/03:30pm 35.0 33.3 12.6 26 13.6 ENE 13 20 7 11 1009.5 1008.6 0.0
02/03:00pm 35.9 34.9 13.4 26 13.9 ENE 11 24 6 13 1009.8 1008.8 0.0
02/02:30pm 34.9 32.6 13.1 27 13.3 NNE 17 33 9 18 1010.4 1009.4 0.0
02/02:00pm 34.6 31.9 12.9 27 13.2 NNE 19 30 10 16 1010.6 1009.6 0.0
02/01:30pm 34.0 31.7 12.9 28 12.8 NNE 17 28 9 15 1011.1 1010.1 0.0
02/01:00pm 34.4 31.8 13.3 28 12.9 NNE 19 28 10 15 1011.8 1010.9 0.0
02/12:30pm 34.2 30.8 13.6 29 12.6 NNE 24 35 13 19 1012.2 1011.3 0.0
02/12:00pm 32.9 29.8 13.5 30 11.8 NNE 22 30 12 16 1012.8 1011.9 0.0
02/11:30am 32.7 29.8 15.2 34 10.9 NNE 24 35 13 19 1013.2 1012.3 0.0
02/11:00am 32.2 29.9 15.7 37 10.4 NNE 22 32 12 17 1013.9 1013.0 0.0
02/10:30am 31.6 27.2 15.1 36 10.2 NNE 32 37 17 20 1014.3 1013.4 0.0
02/10:00am 29.8 26.6 16.2 43 8.5 NNE 28 35 15 19 1014.6 1013.7 0.0
02/09:30am 29.0 27.3 17.2 49 7.5 NNE 22 28 12 15 1015.1 1014.1 0.0
02/09:00am 25.9 23.9 16.5 56 5.8 NNE 22 26 12 14 1014.9 1014.0 0.0
02/08:30am 25.4 23.6 16.0 56 5.8 NNE 20 32 11 17 1014.7 1013.8 0.0
02/08:00am 24.8 22.7 15.1 54 5.9 NE 20 26 11 14 1014.2 1013.3 0.0
02/07:30am 24.1 23.2 14.8 56 5.6 NE 13 17 7 9 1014.4 1013.5 0.0
02/07:00am 23.3 22.1 14.0 56 5.5 NE 13 15 7 8 1014.0 1013.1 0.0
02/06:30am 23.3 22.0 13.8 55 5.6 NE 13 17 7 9 1013.5 1012.6 0.0
02/06:00am 23.4 21.3 13.6 54 5.8 NE 17 20 9 11 1012.8 1011.9 0.0
02/05:30am 23.2 22.1 13.1 53 5.9 NE 11 13 6 7 1012.7 1011.8 0.0
02/05:00am 23.3 21.8 13.2 53 5.9 ENE 13 17 7 9 1012.3 1011.4 0.0
02/04:30am 22.6 20.9 12.5 53 5.8 ENE 13 17 7 9 1012.0 1011.1 0.0
02/04:00am 23.4 21.8 12.7 51 6.2 ENE 13 13 7 7 1011.9 1011.0 0.0
02/03:30am 23.6 21.5 12.3 49 6.5 ENE 15 17 8 9 1011.7 1010.8 0.0
02/03:00am 24.2 22.2 12.8 49 6.6 NE 15 19 8 10 1011.7 1010.8 0.0
02/02:30am 23.9 22.0 11.9 47 6.9 ENE 13 15 7 8 1011.8 1010.9 0.0
02/02:00am 25.0 23.2 12.2 44 7.4 E 13 15 7 8 1011.8 1010.9 0.0
02/01:30am 24.9 23.9 12.2 45 7.3 ESE 9 11 5 6 1011.8 1010.9 0.0
02/01:00am 25.4 24.3 11.9 43 7.8 ENE 9 11 5 6 1012.4 1011.5 0.0
02/12:30am 25.8 24.2 11.6 41 8.1 ENE 11 13 6 7 1012.3 1011.4 0.0
02/12:00am 26.7 24.5 12.0 40 8.5 NE 15 17 8 9 1012.2 1011.3 0.0
 
Date/Time
EST
Temp
°C
App
Temp
°C
Dew
Point
°C
Rel
Hum
%
Delta-T
°C
Wind Press
QNH
hPa
Press
MSL
hPa
Rain since
9am
mm
Dir  Spd
km/h
Gust
km/h
Spd
kts
Gust
kts
01/11:30pm 26.1 24.2 11.8 41 8.2 NNE 13 13 7 7 1012.8 1011.9 0.0
01/11:00pm 27.1 25.6 12.0 39 8.8 NNE 11 13 6 7 1013.0 1012.1 0.0
01/10:30pm 27.4 25.9 11.8 38 9.0 NE 11 13 6 7 1013.1 1012.2 0.0
01/10:00pm 27.8 25.6 10.9 35 9.7 NNE 13 15 7 8 1013.0 1012.1 0.0
01/09:30pm 29.9 28.0 11.9 33 10.6 NE 13 15 7 8 1012.9 1012.0 0.0
01/09:00pm 29.7 27.0 11.7 33 10.5 ENE 17 17 9 9 1012.8 1011.9 0.0
01/08:30pm 30.1 28.4 12.5 34 10.4 NE 13 15 7 8 1012.7 1011.8 0.0
01/08:00pm 29.6 28.4 11.6 33 10.5 NE 9 9 5 5 1012.6 1011.7 0.0
01/07:30pm 29.8 28.7 11.8 33 10.5 NNE 9 11 5 6 1012.2 1011.3 0.0
01/07:00pm 30.4 28.9 11.9 32 10.9 ENE 11 13 6 7 1012.0 1011.1 0.0
01/06:30pm 32.5 31.3 12.7 30 11.9 NE 11 17 6 9 1011.5 1010.6 0.0
01/06:00pm 33.8 32.9 12.7 27 12.8 NE 9 15 5 8 1011.3 1010.4 0.0
01/05:30pm 34.1 32.2 13.0 28 12.8 NNE 15 20 8 11 1011.3 1010.4 0.0
01/05:00pm 35.1 32.9 13.3 27 13.4 NNE 17 26 9 14 1011.1 1010.1 0.0
01/04:30pm 35.5 34.9 13.6 26 13.5 NE 9 19 5 10 1011.1 1010.1 0.0
01/04:00pm 35.1 33.7 13.3 27 13.4 ESE 13 26 7 14 1011.1 1010.1 0.0
01/03:30pm 34.4 32.8 12.7 27 13.1 N 13 19 7 10 1011.5 1010.6 0.0
01/03:00pm 35.7 35.4 14.4 28 13.3 NNE 9 17 5 9 1011.6 1010.7 0.0
01/02:30pm 35.1 34.0 14.4 29 12.9 N 13 24 7 13 1011.8 1010.9 0.0
01/02:00pm 33.7 33.3 14.2 30 12.0 NNE 9 20 5 11 1012.4 1011.5 0.0
01/01:30pm 33.2 31.7 14.3 32 11.7 NNE 15 26 8 14 1012.5 1011.6 0.0
01/01:00pm 34.2 32.3 15.1 31 12.0 NNE 19 32 10 17 1012.8 1011.9 0.0
01/12:30pm 33.9 32.4 15.4 33 11.6 ENE 17 32 9 17 1013.2 1012.3 0.0
01/12:00pm 32.3 31.7 15.7 36 10.4 NNE 13 22 7 12 1013.9 1013.0 0.0
01/11:30am 32.8 31.6 16.2 37 10.5 NNE 17 30 9 16 1014.6 1013.7 0.0
01/11:00am 31.1 30.4 15.5 39 9.7 NNE 13 19 7 10 1015.4 1014.4 0.0
01/10:30am 30.7 30.3 16.3 42 9.1 NNE 13 19 7 10 1015.8 1014.8 0.0
01/10:00am 29.7 28.5 16.1 43 8.5 NNE 17 24 9 13 1015.6 1014.6 0.0
01/09:30am 28.8 27.8 15.7 45 8.1 NNE 15 24 8 13 1015.8 1014.6 0.0
01/09:00am 28.3 27.7 15.6 46 7.8 NE 13 19 7 10 1016.0 1014.8 0.0
01/08:30am 27.5 26.6 14.8 45 7.7 NE 13 17 7 9 1015.9 1014.7 0.0
01/08:00am 26.8 25.3 14.2 46 7.6 ESE 15 17 8 9 1015.6 1014.4 0.0
01/07:30am 25.2 23.8 13.4 48 7.0 SE 13 19 7 10 1015.5 1014.3 0.0
01/07:00am 23.1 21.1 12.7 52 6.0 SSE 15 19 8 10 1015.1 1013.8 0.0
01/06:30am 21.3 19.6 11.3 53 5.6 SSE 11 13 6 7 1014.3 1013.1 0.0
01/06:00am 21.6 19.6 11.6 53 5.6 ESE 13 13 7 7 1013.7 1012.5 0.0
01/05:30am 22.4 20.7 12.4 53 5.7 E 13 15 7 8 1013.3 1012.1 0.0
01/05:00am 22.8 21.4 12.1 51 6.1 E 11 13 6 7 1013.0 1011.8 0.0
01/04:30am 23.0 21.9 12.0 50 6.3 E 9 11 5 6 1012.5 1011.3 0.0

Other formats

Comma delimited format used in spreadsheet applications
http://www.bom.gov.au/fwo/IDQ60801/IDQ60801.94346.axf

JavaScript Object Notation format (JSON) in row-major order
http://www.bom.gov.au/fwo/IDQ60801/IDQ60801.94346.json

Data quality

Most of these data are generated automatically and are frequently updated. Quality checks on data are not normally performed. It is possible for incorrect values to appear. Refer to information at About Latest Weather Observations and please check the disclaimer before using these data.